sensor_id;sensor_type;location;lat;lon;timestamp;pressure;altitude;pressure_sealevel;temperature;humidity
66703;BME280;60933;46.398;-63.798;2023-06-26T00:00:00;101307.47;;;12.70;94.66
66703;BME280;60933;46.398;-63.798;2023-06-26T00:02:27;101293.75;;;12.65;95.07
66703;BME280;60933;46.398;-63.798;2023-06-26T00:04:53;101311.88;;;12.66;95.39
66703;BME280;60933;46.398;-63.798;2023-06-26T00:07:20;101330.72;;;12.72;95.51
66703;BME280;60933;46.398;-63.798;2023-06-26T00:09:46;101328.19;;;12.70;95.67
66703;BME280;60933;46.398;-63.798;2023-06-26T00:12:12;101321.28;;;12.69;95.67
66703;BME280;60933;46.398;-63.798;2023-06-26T00:14:38;101329.00;;;12.71;95.54
66703;BME280;60933;46.398;-63.798;2023-06-26T00:17:04;101321.41;;;12.64;95.47
66703;BME280;60933;46.398;-63.798;2023-06-26T00:19:30;101322.38;;;12.60;95.00
66703;BME280;60933;46.398;-63.798;2023-06-26T00:21:56;101315.66;;;12.51;95.21
66703;BME280;60933;46.398;-63.798;2023-06-26T00:24:22;101328.56;;;12.53;95.07
66703;BME280;60933;46.398;-63.798;2023-06-26T00:26:49;101326.06;;;12.50;94.86
66703;BME280;60933;46.398;-63.798;2023-06-26T00:29:15;101320.94;;;12.47;94.79
66703;BME280;60933;46.398;-63.798;2023-06-26T00:31:42;101327.00;;;12.47;94.94
66703;BME280;60933;46.398;-63.798;2023-06-26T00:34:08;101329.72;;;12.41;94.60
66703;BME280;60933;46.398;-63.798;2023-06-26T00:36:34;101341.09;;;12.34;94.55
66703;BME280;60933;46.398;-63.798;2023-06-26T00:39:00;101342.09;;;12.28;94.56
66703;BME280;60933;46.398;-63.798;2023-06-26T00:41:26;101341.31;;;12.25;94.89
66703;BME280;60933;46.398;-63.798;2023-06-26T00:43:52;101356.06;;;12.19;94.96
66703;BME280;60933;46.398;-63.798;2023-06-26T00:46:18;101364.63;;;12.23;95.26
66703;BME280;60933;46.398;-63.798;2023-06-26T00:48:46;101358.59;;;12.23;95.29
66703;BME280;60933;46.398;-63.798;2023-06-26T00:51:14;101367.28;;;12.20;95.30
66703;BME280;60933;46.398;-63.798;2023-06-26T00:53:40;101378.47;;;12.21;95.19
66703;BME280;60933;46.398;-63.798;2023-06-26T00:56:08;101369.78;;;12.23;95.25
66703;BME280;60933;46.398;-63.798;2023-06-26T00:58:34;101370.66;;;12.24;95.45
66703;BME280;60933;46.398;-63.798;2023-06-26T01:01:00;101364.69;;;12.20;95.29
66703;BME280;60933;46.398;-63.798;2023-06-26T01:03:27;101380.25;;;12.18;95.25
66703;BME280;60933;46.398;-63.798;2023-06-26T01:05:54;101388.16;;;12.12;95.29
66703;BME280;60933;46.398;-63.798;2023-06-26T01:08:22;101388.19;;;12.11;95.53
66703;BME280;60933;46.398;-63.798;2023-06-26T01:10:49;101385.47;;;12.17;96.01
66703;BME280;60933;46.398;-63.798;2023-06-26T01:13:15;101376.13;;;12.10;95.45
66703;BME280;60933;46.398;-63.798;2023-06-26T01:15:42;101383.84;;;12.13;95.64
66703;BME280;60933;46.398;-63.798;2023-06-26T01:18:08;101386.34;;;12.16;95.56
66703;BME280;60933;46.398;-63.798;2023-06-26T01:20:36;101380.41;;;12.11;95.39
66703;BME280;60933;46.398;-63.798;2023-06-26T01:28:13;101381.53;;;11.99;95.05
66703;BME280;60933;46.398;-63.798;2023-06-26T01:30:43;101390.13;;;12.01;95.12
66703;BME280;60933;46.398;-63.798;2023-06-26T01:33:11;101379.75;;;12.01;95.28
66703;BME280;60933;46.398;-63.798;2023-06-26T01:35:38;101380.69;;;11.98;95.42
66703;BME280;60933;46.398;-63.798;2023-06-26T01:38:18;101383.28;;;11.97;95.42
66703;BME280;60933;46.398;-63.798;2023-06-26T01:40:45;101364.53;;;11.85;95.58
66703;BME280;60933;46.398;-63.798;2023-06-26T01:43:36;101396.28;;;11.94;95.42
66703;BME280;60933;46.398;-63.798;2023-06-26T01:51:41;101384.22;;;11.93;96.11
66703;BME280;60933;46.398;-63.798;2023-06-26T01:54:15;101378.25;;;11.89;96.12
66703;BME280;60933;46.398;-63.798;2023-06-26T01:56:45;101391.97;;;11.93;95.98
66703;BME280;60933;46.398;-63.798;2023-06-26T01:59:12;101391.31;;;11.83;96.09
66703;BME280;60933;46.398;-63.798;2023-06-26T02:01:41;101393.72;;;11.91;96.08
66703;BME280;60933;46.398;-63.798;2023-06-26T02:04:07;101388.63;;;11.87;96.18
66703;BME280;60933;46.398;-63.798;2023-06-26T02:06:33;101388.63;;;11.87;96.06
66703;BME280;60933;46.398;-63.798;2023-06-26T02:08:59;101392.91;;;11.88;96.33
66703;BME280;60933;46.398;-63.798;2023-06-26T02:11:26;101402.38;;;11.90;96.28
66703;BME280;60933;46.398;-63.798;2023-06-26T02:13:52;101399.03;;;11.84;96.02
66703;BME280;60933;46.398;-63.798;2023-06-26T02:16:18;101410.22;;;11.85;96.27
66703;BME280;60933;46.398;-63.798;2023-06-26T02:18:44;101396.44;;;11.84;96.59
66703;BME280;60933;46.398;-63.798;2023-06-26T02:21:11;101390.44;;;11.82;96.71
66703;BME280;60933;46.398;-63.798;2023-06-26T02:23:37;101406.56;;;11.95;96.66
66703;BME280;60933;46.398;-63.798;2023-06-26T02:26:03;101405.69;;;11.98;96.51
66703;BME280;60933;46.398;-63.798;2023-06-26T02:28:29;101384.25;;;11.90;96.08
66703;BME280;60933;46.398;-63.798;2023-06-26T02:30:56;101378.28;;;11.87;96.14
66703;BME280;60933;46.398;-63.798;2023-06-26T02:33:23;101399.72;;;11.93;96.25
66703;BME280;60933;46.398;-63.798;2023-06-26T02:35:49;101426.47;;;11.92;96.25
66703;BME280;60933;46.398;-63.798;2023-06-26T02:38:16;101440.25;;;11.94;96.52
66703;BME280;60933;46.398;-63.798;2023-06-26T02:40:42;101434.19;;;11.95;96.42
66703;BME280;60933;46.398;-63.798;2023-06-26T02:43:08;101435.91;;;11.97;96.68
66703;BME280;60933;46.398;-63.798;2023-06-26T02:45:34;101435.84;;;11.99;96.52
66703;BME280;60933;46.398;-63.798;2023-06-26T02:48:00;101433.28;;;11.96;95.71
66703;BME280;60933;46.398;-63.798;2023-06-26T02:50:26;101442.78;;;11.97;95.80
66703;BME280;60933;46.398;-63.798;2023-06-26T02:52:52;101441.03;;;11.99;95.58
66703;BME280;60933;46.398;-63.798;2023-06-26T02:55:19;101446.16;;;12.02;95.66
66703;BME280;60933;46.398;-63.798;2023-06-26T02:57:46;101451.34;;;12.02;95.32
66703;BME280;60933;46.398;-63.798;2023-06-26T03:00:13;101451.44;;;11.97;95.12
66703;BME280;60933;46.398;-63.798;2023-06-26T03:02:39;101458.28;;;12.00;95.02
66703;BME280;60933;46.398;-63.798;2023-06-26T03:05:05;101463.44;;;12.00;94.83
66703;BME280;60933;46.398;-63.798;2023-06-26T03:07:31;101461.88;;;11.90;94.21
66703;BME280;60933;46.398;-63.798;2023-06-26T03:09:57;101461.88;;;11.90;94.72
66703;BME280;60933;46.398;-63.798;2023-06-26T03:12:25;101463.69;;;11.84;94.71
66703;BME280;60933;46.398;-63.798;2023-06-26T03:14:51;101473.16;;;11.85;94.80
66703;BME280;60933;46.398;-63.798;2023-06-26T03:17:17;101471.47;;;11.84;95.02
66703;BME280;60933;46.398;-63.798;2023-06-26T03:19:43;101462.81;;;11.85;95.23
66703;BME280;60933;46.398;-63.798;2023-06-26T03:22:10;101464.56;;;11.83;95.13
66703;BME280;60933;46.398;-63.798;2023-06-26T03:24:36;101462.84;;;11.84;95.08
66703;BME280;60933;46.398;-63.798;2023-06-26T03:27:02;101480.16;;;11.80;95.17
66703;BME280;60933;46.398;-63.798;2023-06-26T03:29:28;101481.06;;;11.78;95.36
66703;BME280;60933;46.398;-63.798;2023-06-26T03:31:55;101483.69;;;11.76;95.65
66703;BME280;60933;46.398;-63.798;2023-06-26T03:34:22;101490.56;;;11.77;95.91
66703;BME280;60933;46.398;-63.798;2023-06-26T03:36:48;101489.66;;;11.80;96.16
66703;BME280;60933;46.398;-63.798;2023-06-26T03:39:14;101487.94;;;11.79;96.29
66703;BME280;60933;46.398;-63.798;2023-06-26T03:41:40;101487.94;;;11.79;96.13
66703;BME280;60933;46.398;-63.798;2023-06-26T03:44:06;101483.75;;;11.71;95.82
66703;BME280;60933;46.398;-63.798;2023-06-26T03:46:32;101470.97;;;11.64;95.88
66703;BME280;60933;46.398;-63.798;2023-06-26T03:48:58;101477.81;;;11.65;95.90
66703;BME280;60933;46.398;-63.798;2023-06-26T03:51:24;101477.06;;;11.60;95.69
66703;BME280;60933;46.398;-63.798;2023-06-26T03:53:50;101480.59;;;11.55;95.50
66703;BME280;60933;46.398;-63.798;2023-06-26T03:56:16;101478.13;;;11.49;95.60
66703;BME280;60933;46.398;-63.798;2023-06-26T03:58:42;101485.88;;;11.49;95.72
66703;BME280;60933;46.398;-63.798;2023-06-26T04:01:09;101473.91;;;11.42;95.70
66703;BME280;60933;46.398;-63.798;2023-06-26T04:03:35;101480.78;;;11.43;95.80
66703;BME280;60933;46.398;-63.798;2023-06-26T04:06:01;101479.06;;;11.44;95.82
66703;BME280;60933;46.398;-63.798;2023-06-26T04:08:27;101483.38;;;11.45;96.12
66703;BME280;60933;46.398;-63.798;2023-06-26T04:10:53;101488.53;;;11.43;96.13
66703;BME280;60933;46.398;-63.798;2023-06-26T04:13:20;101491.97;;;11.45;95.96
66703;BME280;60933;46.398;-63.798;2023-06-26T04:15:46;101497.13;;;11.45;96.13
66703;BME280;60933;46.398;-63.798;2023-06-26T04:18:13;101498.88;;;11.43;95.96
66703;BME280;60933;46.398;-63.798;2023-06-26T04:20:41;101493.84;;;11.35;95.96
66703;BME280;60933;46.398;-63.798;2023-06-26T04:23:25;101493.81;;;11.37;96.13
66703;BME280;60933;46.398;-63.798;2023-06-26T04:25:51;101491.22;;;11.37;96.00
66703;BME280;60933;46.398;-63.798;2023-06-26T04:28:17;101499.81;;;11.39;96.19
66703;BME280;60933;46.398;-63.798;2023-06-26T04:30:43;101497.25;;;11.39;95.95
66703;BME280;60933;46.398;-63.798;2023-06-26T04:33:09;101482.63;;;11.35;95.99
66703;BME280;60933;46.398;-63.798;2023-06-26T04:35:37;101480.91;;;11.37;96.40
66703;BME280;60933;46.398;-63.798;2023-06-26T04:38:03;101487.81;;;11.35;95.79
66703;BME280;60933;46.398;-63.798;2023-06-26T04:40:30;101487.00;;;11.33;96.00
66703;BME280;60933;46.398;-63.798;2023-06-26T04:42:56;101491.31;;;11.32;96.03
66703;BME280;60933;46.398;-63.798;2023-06-26T04:45:22;101491.31;;;11.34;96.13
66703;BME280;60933;46.398;-63.798;2023-06-26T04:47:49;101497.34;;;11.31;95.99
66703;BME280;60933;46.398;-63.798;2023-06-26T04:50:15;101485.47;;;11.21;95.92
66703;BME280;60933;46.398;-63.798;2023-06-26T04:52:44;101500.88;;;11.27;96.08
66703;BME280;60933;46.398;-63.798;2023-06-26T04:55:10;101497.47;;;11.23;96.18
66703;BME280;60933;46.398;-63.798;2023-06-26T04:57:36;101500.09;;;11.22;96.24
66703;BME280;60933;46.398;-63.798;2023-06-26T05:00:03;101492.38;;;11.19;96.40
66703;BME280;60933;46.398;-63.798;2023-06-26T05:02:35;101503.53;;;11.22;96.55
66703;BME280;60933;46.398;-63.798;2023-06-26T05:05:01;101507.81;;;11.23;96.48
66703;BME280;60933;46.398;-63.798;2023-06-26T05:07:27;101513.00;;;11.23;96.48
66703;BME280;60933;46.398;-63.798;2023-06-26T05:09:54;101513.03;;;11.22;96.42
66703;BME280;60933;46.398;-63.798;2023-06-26T05:12:20;101516.41;;;11.24;96.50
66703;BME280;60933;46.398;-63.798;2023-06-26T05:14:46;101510.44;;;11.20;96.28
66703;BME280;60933;46.398;-63.798;2023-06-26T05:17:16;101503.53;;;11.22;96.36
66703;BME280;60933;46.398;-63.798;2023-06-26T05:19:42;101495.97;;;11.10;96.21
66703;BME280;60933;46.398;-63.798;2023-06-26T05:22:09;101521.66;;;11.19;96.59
66703;BME280;60933;46.398;-63.798;2023-06-26T05:24:36;101515.66;;;11.17;96.48
66703;BME280;60933;46.398;-63.798;2023-06-26T05:27:03;101502.75;;;11.17;96.75
66703;BME280;60933;46.398;-63.798;2023-06-26T05:29:33;101515.59;;;11.22;96.50
66703;BME280;60933;46.398;-63.798;2023-06-26T05:31:59;101517.38;;;11.18;96.42
66703;BME280;60933;46.398;-63.798;2023-06-26T05:34:26;101518.19;;;11.22;96.55
66703;BME280;60933;46.398;-63.798;2023-06-26T05:36:58;101523.34;;;11.22;96.36
66703;BME280;60933;46.398;-63.798;2023-06-26T05:39:25;101516.63;;;11.10;95.96
66703;BME280;60933;46.398;-63.798;2023-06-26T05:41:52;101516.69;;;11.04;96.05
66703;BME280;60933;46.398;-63.798;2023-06-26T05:44:18;101527.00;;;11.07;96.52
66703;BME280;60933;46.398;-63.798;2023-06-26T05:46:45;101505.63;;;10.97;96.60
66703;BME280;60933;46.398;-63.798;2023-06-26T05:49:11;101525.41;;;10.97;96.74
66703;BME280;60933;46.398;-63.798;2023-06-26T05:51:38;101525.47;;;10.92;97.00
66703;BME280;60933;46.398;-63.798;2023-06-26T05:54:04;101528.16;;;10.87;97.29
66703;BME280;60933;46.398;-63.798;2023-06-26T05:56:31;101519.59;;;10.82;97.43
66703;BME280;60933;46.398;-63.798;2023-06-26T05:58:58;101529.03;;;10.85;97.83
66703;BME280;60933;46.398;-63.798;2023-06-26T06:01:24;101517.94;;;10.78;97.88
66703;BME280;60933;46.398;-63.798;2023-06-26T06:03:50;101529.88;;;10.85;98.37
66703;BME280;60933;46.398;-63.798;2023-06-26T06:06:16;101531.63;;;10.83;98.67
66703;BME280;60933;46.398;-63.798;2023-06-26T06:08:43;101529.88;;;10.85;98.59
66703;BME280;60933;46.398;-63.798;2023-06-26T06:11:09;101523.00;;;10.84;98.69
66703;BME280;60933;46.398;-63.798;2023-06-26T06:13:35;101528.19;;;10.84;98.49
66703;BME280;60933;46.398;-63.798;2023-06-26T06:16:01;101534.28;;;10.80;98.30
66703;BME280;60933;46.398;-63.798;2023-06-26T06:18:27;101535.19;;;10.73;98.44
66703;BME280;60933;46.398;-63.798;2023-06-26T06:20:53;101545.53;;;10.74;98.61
66703;BME280;60933;46.398;-63.798;2023-06-26T06:23:19;101552.41;;;10.74;98.80
66703;BME280;60933;46.398;-63.798;2023-06-26T06:25:45;101551.59;;;10.72;98.91
66703;BME280;60933;46.398;-63.798;2023-06-26T06:28:11;101561.09;;;10.67;98.80
66703;BME280;60933;46.398;-63.798;2023-06-26T06:30:39;101565.38;;;10.69;99.23
66703;BME280;60933;46.398;-63.798;2023-06-26T06:33:05;101558.53;;;10.67;99.20
66703;BME280;60933;46.398;-63.798;2023-06-26T06:35:31;101562.78;;;10.69;99.66
66703;BME280;60933;46.398;-63.798;2023-06-26T06:37:57;101562.78;;;10.71;99.95
66703;BME280;60933;46.398;-63.798;2023-06-26T06:40:24;101567.94;;;10.72;100.00
66703;BME280;60933;46.398;-63.798;2023-06-26T06:42:51;101562.75;;;10.72;100.00
66703;BME280;60933;46.398;-63.798;2023-06-26T06:45:18;101567.91;;;10.74;100.00
66703;BME280;60933;46.398;-63.798;2023-06-26T06:47:44;101557.63;;;10.71;100.00
66703;BME280;60933;46.398;-63.798;2023-06-26T06:50:10;101566.19;;;10.73;100.00
66703;BME280;60933;46.398;-63.798;2023-06-26T06:52:39;101571.44;;;10.67;100.00
66703;BME280;60933;46.398;-63.798;2023-06-26T06:55:07;101573.19;;;10.65;100.00
66703;BME280;60933;46.398;-63.798;2023-06-26T06:57:38;101572.31;;;10.64;100.00
66703;BME280;60933;46.398;-63.798;2023-06-26T07:00:05;101569.84;;;10.56;100.00
66703;BME280;60933;46.398;-63.798;2023-06-26T07:02:35;101563.75;;;10.60;100.00
66703;BME280;60933;46.398;-63.798;2023-06-26T07:05:02;101558.59;;;10.60;100.00
66703;BME280;60933;46.398;-63.798;2023-06-26T07:07:30;101554.28;;;10.63;100.00
66703;BME280;60933;46.398;-63.798;2023-06-26T07:09:59;101553.50;;;10.57;100.00
66703;BME280;60933;46.398;-63.798;2023-06-26T07:12:25;101561.25;;;10.57;100.00
66703;BME280;60933;46.398;-63.798;2023-06-26T07:14:51;101566.41;;;10.56;100.00
66703;BME280;60933;46.398;-63.798;2023-06-26T07:17:19;101567.28;;;10.53;100.00
66703;BME280;60933;46.398;-63.798;2023-06-26T07:19:47;101569.88;;;10.53;100.00
66703;BME280;60933;46.398;-63.798;2023-06-26T07:22:13;101575.03;;;10.53;100.00
66703;BME280;60933;46.398;-63.798;2023-06-26T07:24:39;101569.84;;;10.56;100.00
66703;BME280;60933;46.398;-63.798;2023-06-26T07:27:05;101575.88;;;10.54;100.00
66703;BME280;60933;46.398;-63.798;2023-06-26T07:29:31;101581.94;;;10.53;100.00
66703;BME280;60933;46.398;-63.798;2023-06-26T07:31:58;101579.41;;;10.47;100.00
66703;BME280;60933;46.398;-63.798;2023-06-26T07:34:24;101581.22;;;10.40;100.00
66703;BME280;60933;46.398;-63.798;2023-06-26T07:36:50;101592.31;;;10.48;100.00
66703;BME280;60933;46.398;-63.798;2023-06-26T07:39:16;101591.44;;;10.48;100.00
66703;BME280;60933;46.398;-63.798;2023-06-26T07:41:42;101601.81;;;10.44;100.00
66703;BME280;60933;46.398;-63.798;2023-06-26T07:44:08;101613.84;;;10.45;100.00
66703;BME280;60933;46.398;-63.798;2023-06-26T07:46:34;101611.31;;;10.41;100.00
66703;BME280;60933;46.398;-63.798;2023-06-26T07:49:00;101623.31;;;10.45;100.00
66703;BME280;60933;46.398;-63.798;2023-06-26T07:51:26;101627.66;;;10.40;100.00
66703;BME280;60933;46.398;-63.798;2023-06-26T07:53:52;101636.25;;;10.42;100.00
66703;BME280;60933;46.398;-63.798;2023-06-26T07:56:19;101638.78;;;10.45;100.00
66703;BME280;60933;46.398;-63.798;2023-06-26T07:58:45;101643.97;;;10.45;100.00
66703;BME280;60933;46.398;-63.798;2023-06-26T08:01:11;101649.09;;;10.47;100.00
66703;BME280;60933;46.398;-63.798;2023-06-26T08:03:37;101644.81;;;10.47;100.00
66703;BME280;60933;46.398;-63.798;2023-06-26T08:06:03;101638.81;;;10.43;100.00
66703;BME280;60933;46.398;-63.798;2023-06-26T08:08:29;101627.69;;;10.32;100.00
66703;BME280;60933;46.398;-63.798;2023-06-26T08:10:56;101639.72;;;10.38;100.00
66703;BME280;60933;46.398;-63.798;2023-06-26T08:13:22;101649.16;;;10.36;100.00
66703;BME280;60933;46.398;-63.798;2023-06-26T08:15:48;101655.19;;;10.39;100.00
66703;BME280;60933;46.398;-63.798;2023-06-26T08:18:14;101647.53;;;10.30;100.00
66703;BME280;60933;46.398;-63.798;2023-06-26T08:20:40;101667.28;;;10.31;100.00
66703;BME280;60933;46.398;-63.798;2023-06-26T08:23:06;101676.75;;;10.30;100.00
66703;BME280;60933;46.398;-63.798;2023-06-26T08:25:32;101681.06;;;10.28;100.00
66703;BME280;60933;46.398;-63.798;2023-06-26T08:27:59;101685.41;;;10.26;100.00
66703;BME280;60933;46.398;-63.798;2023-06-26T08:30:25;101681.09;;;10.25;100.00
66703;BME280;60933;46.398;-63.798;2023-06-26T08:32:56;101685.41;;;10.26;100.00
66703;BME280;60933;46.398;-63.798;2023-06-26T08:35:22;101693.13;;;10.28;100.00
66703;BME280;60933;46.398;-63.798;2023-06-26T08:37:49;101700.91;;;10.22;100.00
66703;BME280;60933;46.398;-63.798;2023-06-26T08:40:18;101688.03;;;10.19;100.00
66703;BME280;60933;46.398;-63.798;2023-06-26T08:42:45;101697.44;;;10.26;100.00
66703;BME280;60933;46.398;-63.798;2023-06-26T08:45:11;101696.59;;;10.25;100.00
66703;BME280;60933;46.398;-63.798;2023-06-26T08:47:38;101689.78;;;10.18;100.00
66703;BME280;60933;46.398;-63.798;2023-06-26T08:50:08;101689.72;;;10.21;100.00
66703;BME280;60933;46.398;-63.798;2023-06-26T08:52:41;101706.97;;;10.18;100.00
66703;BME280;60933;46.398;-63.798;2023-06-26T08:55:10;101704.38;;;10.21;100.00
66703;BME280;60933;46.398;-63.798;2023-06-26T08:57:39;101699.22;;;10.16;100.00
66703;BME280;60933;46.398;-63.798;2023-06-26T09:00:06;101712.09;;;10.19;100.00
66703;BME280;60933;46.398;-63.798;2023-06-26T09:02:38;101725.88;;;10.18;100.00
66703;BME280;60933;46.398;-63.798;2023-06-26T09:05:05;101715.56;;;10.17;100.00
66703;BME280;60933;46.398;-63.798;2023-06-26T09:07:31;101721.59;;;10.17;100.00
66703;BME280;60933;46.398;-63.798;2023-06-26T09:09:57;101727.56;;;10.19;100.00
66703;BME280;60933;46.398;-63.798;2023-06-26T09:12:27;101726.72;;;10.20;100.00
66703;BME280;60933;46.398;-63.798;2023-06-26T09:14:55;101737.88;;;10.24;100.00
66703;BME280;60933;46.398;-63.798;2023-06-26T09:17:32;101737.84;;;10.27;100.00
66703;BME280;60933;46.398;-63.798;2023-06-26T09:19:59;101736.13;;;10.26;100.00
66703;BME280;60933;46.398;-63.798;2023-06-26T09:22:25;101734.41;;;10.25;100.00
66703;BME280;60933;46.398;-63.798;2023-06-26T09:24:52;101726.72;;;10.22;100.00
66703;BME280;60933;46.398;-63.798;2023-06-26T09:27:18;101723.31;;;10.18;100.00
66703;BME280;60933;46.398;-63.798;2023-06-26T09:29:48;101733.53;;;10.29;100.00
66703;BME280;60933;46.398;-63.798;2023-06-26T09:32:14;101736.97;;;10.29;100.00
66703;BME280;60933;46.398;-63.798;2023-06-26T09:34:41;101728.38;;;10.27;100.00
66703;BME280;60933;46.398;-63.798;2023-06-26T09:37:12;101729.22;;;10.33;100.00
66703;BME280;60933;46.398;-63.798;2023-06-26T09:39:39;101736.91;;;10.36;100.00
66703;BME280;60933;46.398;-63.798;2023-06-26T09:42:05;101726.63;;;10.33;100.00
66703;BME280;60933;46.398;-63.798;2023-06-26T09:44:33;101730.91;;;10.40;100.00
66703;BME280;60933;46.398;-63.798;2023-06-26T09:47:02;101742.94;;;10.39;100.00
66703;BME280;60933;46.398;-63.798;2023-06-26T09:49:31;101731.72;;;10.45;100.00
66703;BME280;60933;46.398;-63.798;2023-06-26T09:52:00;101733.44;;;10.46;100.00
66703;BME280;60933;46.398;-63.798;2023-06-26T09:54:27;101741.16;;;10.48;100.00
66703;BME280;60933;46.398;-63.798;2023-06-26T09:57:06;101748.03;;;10.52;100.00
66703;BME280;60933;46.398;-63.798;2023-06-26T09:59:33;101763.47;;;10.58;100.00
66703;BME280;60933;46.398;-63.798;2023-06-26T10:02:00;101760.84;;;10.63;100.00
66703;BME280;60933;46.398;-63.798;2023-06-26T10:04:26;101760.81;;;10.64;100.00
66703;BME280;60933;46.398;-63.798;2023-06-26T10:06:56;101759.06;;;10.68;100.00
66703;BME280;60933;46.398;-63.798;2023-06-26T10:09:23;101758.22;;;10.66;100.00
66703;BME280;60933;46.398;-63.798;2023-06-26T10:12:14;101755.59;;;10.72;100.00
66703;BME280;60933;46.398;-63.798;2023-06-26T10:14:42;101749.56;;;10.71;100.00
66703;BME280;60933;46.398;-63.798;2023-06-26T10:17:10;101753.81;;;10.77;100.00
66703;BME280;60933;46.398;-63.798;2023-06-26T10:19:43;101760.69;;;10.78;100.00
66703;BME280;60933;46.398;-63.798;2023-06-26T10:22:12;101738.34;;;10.75;100.00
66703;BME280;60933;46.398;-63.798;2023-06-26T10:24:41;101739.16;;;10.79;100.00
66703;BME280;60933;46.398;-63.798;2023-06-26T10:27:18;101745.19;;;10.78;100.00
66703;BME280;60933;46.398;-63.798;2023-06-26T10:29:56;101744.31;;;10.81;100.00
66703;BME280;60933;46.398;-63.798;2023-06-26T10:32:25;101746.00;;;10.83;100.00
66703;BME280;60933;46.398;-63.798;2023-06-26T10:34:55;101744.22;;;10.90;100.00
66703;BME280;60933;46.398;-63.798;2023-06-26T10:37:41;101746.78;;;10.95;100.00
66703;BME280;60933;46.398;-63.798;2023-06-26T10:40:08;101748.44;;;10.99;100.00
66703;BME280;60933;46.398;-63.798;2023-06-26T10:42:35;101738.03;;;11.05;100.00
66703;BME280;60933;46.398;-63.798;2023-06-26T10:45:18;101751.81;;;11.04;100.00
66703;BME280;60933;46.398;-63.798;2023-06-26T10:47:52;101750.06;;;11.09;100.00
66703;BME280;60933;46.398;-63.798;2023-06-26T10:52:46;101755.16;;;11.15;100.00
66703;BME280;60933;46.398;-63.798;2023-06-26T10:55:31;101760.31;;;11.18;100.00
66703;BME280;60933;46.398;-63.798;2023-06-26T10:57:58;101767.16;;;11.19;100.00
66703;BME280;60933;46.398;-63.798;2023-06-26T11:00:24;101783.53;;;11.20;100.00
66703;BME280;60933;46.398;-63.798;2023-06-26T11:02:50;101780.94;;;11.21;100.00
66703;BME280;60933;46.398;-63.798;2023-06-26T11:05:32;101792.91;;;11.29;100.00
66703;BME280;60933;46.398;-63.798;2023-06-26T11:08:08;101786.84;;;11.31;100.00
66703;BME280;60933;46.398;-63.798;2023-06-26T11:10:52;101785.09;;;11.33;100.00
66703;BME280;60933;46.398;-63.798;2023-06-26T11:13:19;101797.91;;;11.44;100.00
66703;BME280;60933;46.398;-63.798;2023-06-26T11:15:46;101800.47;;;11.46;100.00
66703;BME280;60933;46.398;-63.798;2023-06-26T11:18:13;101799.47;;;11.57;100.00
66703;BME280;60933;46.398;-63.798;2023-06-26T11:20:40;101795.81;;;11.74;100.00
66703;BME280;60933;46.398;-63.798;2023-06-26T11:23:08;101805.16;;;11.86;100.00
66703;BME280;60933;46.398;-63.798;2023-06-26T11:25:38;101804.19;;;11.95;100.00
66703;BME280;60933;46.398;-63.798;2023-06-26T11:28:05;101800.69;;;12.02;100.00
66703;BME280;60933;46.398;-63.798;2023-06-26T11:30:31;101784.31;;;12.00;100.00
66703;BME280;60933;46.398;-63.798;2023-06-26T11:33:08;101791.13;;;12.04;100.00
66703;BME280;60933;46.398;-63.798;2023-06-26T11:35:35;101795.50;;;12.02;99.08
66703;BME280;60933;46.398;-63.798;2023-06-26T11:38:02;101808.38;;;12.05;98.87
66703;BME280;60933;46.398;-63.798;2023-06-26T11:40:33;101815.16;;;12.15;98.83
66703;BME280;60933;46.398;-63.798;2023-06-26T11:43:00;101818.63;;;12.13;97.50
66703;BME280;60933;46.398;-63.798;2023-06-26T11:45:31;101811.75;;;12.12;96.64
66703;BME280;60933;46.398;-63.798;2023-06-26T11:47:58;101804.66;;;12.25;96.78
66703;BME280;60933;46.398;-63.798;2023-06-26T11:50:25;101791.53;;;12.37;96.63
66703;BME280;60933;46.398;-63.798;2023-06-26T11:52:58;101797.53;;;12.39;95.33
66703;BME280;60933;46.398;-63.798;2023-06-26T11:55:25;101803.53;;;12.43;94.73
66703;BME280;60933;46.398;-63.798;2023-06-26T11:57:56;101795.63;;;12.52;95.02
66703;BME280;60933;46.398;-63.798;2023-06-26T12:00:23;101788.53;;;12.62;94.00
66703;BME280;60933;46.398;-63.798;2023-06-26T12:02:49;101782.41;;;12.66;93.43
66703;BME280;60933;46.398;-63.798;2023-06-26T12:05:18;101790.91;;;12.74;93.05
66703;BME280;60933;46.398;-63.798;2023-06-26T12:07:47;101780.50;;;12.77;92.80
66703;BME280;60933;46.398;-63.798;2023-06-26T12:10:14;101775.28;;;12.79;91.42
66703;BME280;60933;46.398;-63.798;2023-06-26T12:12:41;101788.06;;;12.90;90.75
66703;BME280;60933;46.398;-63.798;2023-06-26T12:15:10;101789.66;;;12.98;90.32
66703;BME280;60933;46.398;-63.798;2023-06-26T12:17:39;101791.38;;;12.98;89.41
66703;BME280;60933;46.398;-63.798;2023-06-26T12:20:16;101806.84;;;13.03;88.94
66703;BME280;60933;46.398;-63.798;2023-06-26T12:22:43;101811.03;;;13.10;88.88
66703;BME280;60933;46.398;-63.798;2023-06-26T12:25:11;101816.25;;;13.07;87.59
66703;BME280;60933;46.398;-63.798;2023-06-26T12:27:37;101811.75;;;13.18;88.22
66703;BME280;60933;46.398;-63.798;2023-06-26T12:30:04;101823.75;;;13.22;88.50
66703;BME280;60933;46.398;-63.798;2023-06-26T12:32:31;101825.38;;;13.28;87.82
66703;BME280;60933;46.398;-63.798;2023-06-26T12:34:57;101827.94;;;13.31;87.11
66703;BME280;60933;46.398;-63.798;2023-06-26T12:37:24;101827.81;;;13.37;87.50
66703;BME280;60933;46.398;-63.798;2023-06-26T12:39:51;101830.09;;;13.54;87.89